sensor_id;sensor_type;location;lat;lon;timestamp;temperature;humidity
37242;DHT22;23135;51.078;12.108;2022-09-21T00:00:40;6.80;99.90
37242;DHT22;23135;51.078;12.108;2022-09-21T00:03:05;6.70;99.90
37242;DHT22;23135;51.078;12.108;2022-09-21T00:05:32;6.70;99.90
37242;DHT22;23135;51.078;12.108;2022-09-21T00:08:05;6.60;99.90
37242;DHT22;23135;51.078;12.108;2022-09-21T00:10:31;6.60;99.90
37242;DHT22;23135;51.078;12.108;2022-09-21T00:12:57;6.50;99.90
37242;DHT22;23135;51.078;12.108;2022-09-21T00:15:24;6.60;99.90
37242;DHT22;23135;51.078;12.108;2022-09-21T00:17:53;6.60;99.90
37242;DHT22;23135;51.078;12.108;2022-09-21T00:20:20;6.50;99.90
37242;DHT22;23135;51.078;12.108;2022-09-21T00:22:46;6.50;99.90
37242;DHT22;23135;51.078;12.108;2022-09-21T00:25:12;6.60;99.90
37242;DHT22;23135;51.078;12.108;2022-09-21T00:27:39;6.50;99.90
37242;DHT22;23135;51.078;12.108;2022-09-21T00:30:06;6.60;99.90
37242;DHT22;23135;51.078;12.108;2022-09-21T00:32:34;6.50;99.90
37242;DHT22;23135;51.078;12.108;2022-09-21T00:35:00;6.60;99.90
37242;DHT22;23135;51.078;12.108;2022-09-21T00:37:27;6.60;99.90
37242;DHT22;23135;51.078;12.108;2022-09-21T00:39:53;6.60;99.90
37242;DHT22;23135;51.078;12.108;2022-09-21T00:42:19;6.60;99.90
37242;DHT22;23135;51.078;12.108;2022-09-21T00:44:45;6.60;99.90
37242;DHT22;23135;51.078;12.108;2022-09-21T00:47:18;6.60;99.90
37242;DHT22;23135;51.078;12.108;2022-09-21T00:49:49;6.60;99.90
37242;DHT22;23135;51.078;12.108;2022-09-21T00:52:19;6.60;99.90
37242;DHT22;23135;51.078;12.108;2022-09-21T00:54:52;6.70;99.90
37242;DHT22;23135;51.078;12.108;2022-09-21T00:57:21;6.70;99.90
37242;DHT22;23135;51.078;12.108;2022-09-21T00:59:49;6.70;99.90
37242;DHT22;23135;51.078;12.108;2022-09-21T01:02:16;6.70;99.90
37242;DHT22;23135;51.078;12.108;2022-09-21T01:04:43;6.70;99.90
37242;DHT22;23135;51.078;12.108;2022-09-21T01:07:12;6.70;99.90
37242;DHT22;23135;51.078;12.108;2022-09-21T01:09:41;6.60;99.90
37242;DHT22;23135;51.078;12.108;2022-09-21T01:17:31;6.50;99.90
37242;DHT22;23135;51.078;12.108;2022-09-21T01:20:18;6.50;99.90
37242;DHT22;23135;51.078;12.108;2022-09-21T01:28:27;6.40;99.90
37242;DHT22;23135;51.078;12.108;2022-09-21T01:31:00;6.40;99.90
37242;DHT22;23135;51.078;12.108;2022-09-21T01:33:35;6.40;99.90
37242;DHT22;23135;51.078;12.108;2022-09-21T01:36:11;6.40;99.90
37242;DHT22;23135;51.078;12.108;2022-09-21T01:38:45;6.30;99.90
37242;DHT22;23135;51.078;12.108;2022-09-21T01:41:17;6.30;99.90
37242;DHT22;23135;51.078;12.108;2022-09-21T01:43:50;6.30;99.90
37242;DHT22;23135;51.078;12.108;2022-09-21T01:46:20;6.30;99.90
37242;DHT22;23135;51.078;12.108;2022-09-21T01:48:52;6.20;99.90
37242;DHT22;23135;51.078;12.108;2022-09-21T01:51:21;6.20;99.90
37242;DHT22;23135;51.078;12.108;2022-09-21T01:54:00;6.20;99.90
37242;DHT22;23135;51.078;12.108;2022-09-21T01:56:34;6.20;99.90
37242;DHT22;23135;51.078;12.108;2022-09-21T01:59:12;6.20;99.90
37242;DHT22;23135;51.078;12.108;2022-09-21T02:01:51;6.20;99.90
37242;DHT22;23135;51.078;12.108;2022-09-21T02:04:17;6.20;99.90
37242;DHT22;23135;51.078;12.108;2022-09-21T02:06:45;6.10;99.90
37242;DHT22;23135;51.078;12.108;2022-09-21T02:09:12;6.20;99.90
37242;DHT22;23135;51.078;12.108;2022-09-21T02:11:38;6.10;99.90
37242;DHT22;23135;51.078;12.108;2022-09-21T02:14:08;6.10;99.90
37242;DHT22;23135;51.078;12.108;2022-09-21T02:16:43;6.10;99.90
37242;DHT22;23135;51.078;12.108;2022-09-21T02:19:25;6.00;99.90
37242;DHT22;23135;51.078;12.108;2022-09-21T02:24:53;5.90;99.90
37242;DHT22;23135;51.078;12.108;2022-09-21T02:27:27;5.80;99.90
37242;DHT22;23135;51.078;12.108;2022-09-21T02:32:39;5.70;99.90
37242;DHT22;23135;51.078;12.108;2022-09-21T02:37:48;5.60;99.90
37242;DHT22;23135;51.078;12.108;2022-09-21T02:42:54;5.60;99.90
37242;DHT22;23135;51.078;12.108;2022-09-21T02:45:25;5.60;99.90
37242;DHT22;23135;51.078;12.108;2022-09-21T02:47:59;5.60;99.90
37242;DHT22;23135;51.078;12.108;2022-09-21T02:50:30;5.60;99.90
37242;DHT22;23135;51.078;12.108;2022-09-21T02:53:00;5.60;99.90
37242;DHT22;23135;51.078;12.108;2022-09-21T02:55:26;5.50;99.90
37242;DHT22;23135;51.078;12.108;2022-09-21T02:57:53;5.50;99.90
37242;DHT22;23135;51.078;12.108;2022-09-21T03:00:20;5.60;99.90
37242;DHT22;23135;51.078;12.108;2022-09-21T03:02:46;5.60;99.90
37242;DHT22;23135;51.078;12.108;2022-09-21T03:05:12;5.50;99.90
37242;DHT22;23135;51.078;12.108;2022-09-21T03:07:39;5.50;99.90
37242;DHT22;23135;51.078;12.108;2022-09-21T03:10:05;5.60;99.90
37242;DHT22;23135;51.078;12.108;2022-09-21T03:12:32;5.50;99.90
37242;DHT22;23135;51.078;12.108;2022-09-21T03:14:58;5.60;99.90
37242;DHT22;23135;51.078;12.108;2022-09-21T03:17:25;5.60;99.90
37242;DHT22;23135;51.078;12.108;2022-09-21T03:19:51;5.60;99.90
37242;DHT22;23135;51.078;12.108;2022-09-21T03:22:20;5.60;99.90
37242;DHT22;23135;51.078;12.108;2022-09-21T03:24:45;5.70;99.90
37242;DHT22;23135;51.078;12.108;2022-09-21T03:27:20;5.80;99.90
37242;DHT22;23135;51.078;12.108;2022-09-21T03:29:47;5.80;99.90
37242;DHT22;23135;51.078;12.108;2022-09-21T03:32:13;5.80;99.90
37242;DHT22;23135;51.078;12.108;2022-09-21T03:34:39;5.80;99.90
37242;DHT22;23135;51.078;12.108;2022-09-21T03:37:07;5.80;99.90
37242;DHT22;23135;51.078;12.108;2022-09-21T03:39:33;5.80;99.90
37242;DHT22;23135;51.078;12.108;2022-09-21T03:41:59;5.80;99.90
37242;DHT22;23135;51.078;12.108;2022-09-21T03:44:25;5.80;99.90
37242;DHT22;23135;51.078;12.108;2022-09-21T03:46:51;5.80;99.90
37242;DHT22;23135;51.078;12.108;2022-09-21T03:49:17;5.80;99.90
37242;DHT22;23135;51.078;12.108;2022-09-21T03:51:43;5.80;99.90
37242;DHT22;23135;51.078;12.108;2022-09-21T03:54:09;5.70;99.90
37242;DHT22;23135;51.078;12.108;2022-09-21T03:56:35;5.70;99.90
37242;DHT22;23135;51.078;12.108;2022-09-21T03:59:01;5.70;99.90
37242;DHT22;23135;51.078;12.108;2022-09-21T04:01:27;5.70;99.90
37242;DHT22;23135;51.078;12.108;2022-09-21T04:03:53;5.70;99.90
37242;DHT22;23135;51.078;12.108;2022-09-21T04:06:18;5.70;99.90
37242;DHT22;23135;51.078;12.108;2022-09-21T04:08:44;5.70;99.90
37242;DHT22;23135;51.078;12.108;2022-09-21T04:11:11;5.60;99.90
37242;DHT22;23135;51.078;12.108;2022-09-21T04:13:37;5.60;99.90
37242;DHT22;23135;51.078;12.108;2022-09-21T04:16:03;5.60;99.90
37242;DHT22;23135;51.078;12.108;2022-09-21T04:18:28;5.60;99.90
37242;DHT22;23135;51.078;12.108;2022-09-21T04:20:54;5.50;99.90
37242;DHT22;23135;51.078;12.108;2022-09-21T04:23:19;5.50;99.90
37242;DHT22;23135;51.078;12.108;2022-09-21T04:25:48;5.40;99.90
37242;DHT22;23135;51.078;12.108;2022-09-21T04:28:16;5.50;99.90
37242;DHT22;23135;51.078;12.108;2022-09-21T04:30:42;5.50;99.90
37242;DHT22;23135;51.078;12.108;2022-09-21T04:33:07;5.50;99.90
37242;DHT22;23135;51.078;12.108;2022-09-21T04:35:33;5.40;99.90
37242;DHT22;23135;51.078;12.108;2022-09-21T04:37:58;5.40;99.90
37242;DHT22;23135;51.078;12.108;2022-09-21T04:40:24;5.40;99.90
37242;DHT22;23135;51.078;12.108;2022-09-21T04:42:53;5.40;99.90
37242;DHT22;23135;51.078;12.108;2022-09-21T04:45:20;5.40;99.90
37242;DHT22;23135;51.078;12.108;2022-09-21T04:47:46;5.30;99.90
37242;DHT22;23135;51.078;12.108;2022-09-21T04:50:12;5.30;99.90
37242;DHT22;23135;51.078;12.108;2022-09-21T04:52:39;5.30;99.90
37242;DHT22;23135;51.078;12.108;2022-09-21T04:55:05;5.20;99.90
37242;DHT22;23135;51.078;12.108;2022-09-21T04:57:31;5.20;99.90
37242;DHT22;23135;51.078;12.108;2022-09-21T04:59:57;5.10;99.90
37242;DHT22;23135;51.078;12.108;2022-09-21T05:02:23;5.10;99.90
37242;DHT22;23135;51.078;12.108;2022-09-21T05:04:48;5.20;99.90
37242;DHT22;23135;51.078;12.108;2022-09-21T05:07:14;5.20;99.90
37242;DHT22;23135;51.078;12.108;2022-09-21T05:09:40;5.20;99.90
37242;DHT22;23135;51.078;12.108;2022-09-21T05:12:24;5.20;99.90
37242;DHT22;23135;51.078;12.108;2022-09-21T05:14:50;5.20;99.90
37242;DHT22;23135;51.078;12.108;2022-09-21T05:17:15;5.20;99.90
37242;DHT22;23135;51.078;12.108;2022-09-21T05:19:41;5.20;99.90
37242;DHT22;23135;51.078;12.108;2022-09-21T05:22:07;5.20;99.90
37242;DHT22;23135;51.078;12.108;2022-09-21T05:24:33;5.10;99.90
37242;DHT22;23135;51.078;12.108;2022-09-21T05:27:00;5.20;99.90
37242;DHT22;23135;51.078;12.108;2022-09-21T05:29:25;5.10;99.90
37242;DHT22;23135;51.078;12.108;2022-09-21T05:32:19;5.20;99.90
37242;DHT22;23135;51.078;12.108;2022-09-21T05:34:59;5.20;99.90
37242;DHT22;23135;51.078;12.108;2022-09-21T05:40:05;5.30;99.90
37242;DHT22;23135;51.078;12.108;2022-09-21T05:42:32;5.30;99.90
37242;DHT22;23135;51.078;12.108;2022-09-21T05:44:57;5.30;99.90
37242;DHT22;23135;51.078;12.108;2022-09-21T05:50:51;5.40;99.90
37242;DHT22;23135;51.078;12.108;2022-09-21T05:56:40;5.50;99.90
37242;DHT22;23135;51.078;12.108;2022-09-21T06:05:06;5.70;99.90
37242;DHT22;23135;51.078;12.108;2022-09-21T06:07:34;5.70;99.90
37242;DHT22;23135;51.078;12.108;2022-09-21T06:10:00;5.80;99.90
37242;DHT22;23135;51.078;12.108;2022-09-21T06:12:26;5.90;99.90
37242;DHT22;23135;51.078;12.108;2022-09-21T06:14:51;5.90;99.90
37242;DHT22;23135;51.078;12.108;2022-09-21T06:17:17;6.00;99.90
37242;DHT22;23135;51.078;12.108;2022-09-21T06:19:42;6.10;99.90
37242;DHT22;23135;51.078;12.108;2022-09-21T06:22:08;6.20;99.90
37242;DHT22;23135;51.078;12.108;2022-09-21T06:24:33;6.30;99.90
37242;DHT22;23135;51.078;12.108;2022-09-21T06:26:59;6.50;99.90
37242;DHT22;23135;51.078;12.108;2022-09-21T06:29:24;6.60;99.90
37242;DHT22;23135;51.078;12.108;2022-09-21T06:31:50;6.70;99.90
37242;DHT22;23135;51.078;12.108;2022-09-21T06:34:16;6.80;99.90
37242;DHT22;23135;51.078;12.108;2022-09-21T06:36:42;7.00;99.90
37242;DHT22;23135;51.078;12.108;2022-09-21T06:39:08;7.10;99.90
37242;DHT22;23135;51.078;12.108;2022-09-21T06:41:34;7.20;99.90
37242;DHT22;23135;51.078;12.108;2022-09-21T06:43:59;7.30;99.90
37242;DHT22;23135;51.078;12.108;2022-09-21T06:46:25;7.40;99.90
37242;DHT22;23135;51.078;12.108;2022-09-21T06:48:50;7.60;99.90
37242;DHT22;23135;51.078;12.108;2022-09-21T06:51:16;7.70;99.90
37242;DHT22;23135;51.078;12.108;2022-09-21T06:53:41;7.80;99.90
37242;DHT22;23135;51.078;12.108;2022-09-21T06:56:08;8.00;99.90
37242;DHT22;23135;51.078;12.108;2022-09-21T06:58:34;8.20;99.90
37242;DHT22;23135;51.078;12.108;2022-09-21T07:01:12;8.30;99.90
37242;DHT22;23135;51.078;12.108;2022-09-21T07:03:38;8.50;99.90
37242;DHT22;23135;51.078;12.108;2022-09-21T07:06:05;8.70;99.90
37242;DHT22;23135;51.078;12.108;2022-09-21T07:08:30;8.90;99.90
37242;DHT22;23135;51.078;12.108;2022-09-21T07:10:57;9.00;99.90
37242;DHT22;23135;51.078;12.108;2022-09-21T07:13:23;9.20;99.90
37242;DHT22;23135;51.078;12.108;2022-09-21T07:15:49;9.30;99.90
37242;DHT22;23135;51.078;12.108;2022-09-21T07:18:15;9.60;99.90
37242;DHT22;23135;51.078;12.108;2022-09-21T07:20:41;9.90;99.90
37242;DHT22;23135;51.078;12.108;2022-09-21T07:23:16;10.20;99.90
37242;DHT22;23135;51.078;12.108;2022-09-21T07:25:44;10.60;99.90
37242;DHT22;23135;51.078;12.108;2022-09-21T07:28:11;10.80;99.90
37242;DHT22;23135;51.078;12.108;2022-09-21T07:30:38;11.00;99.90
37242;DHT22;23135;51.078;12.108;2022-09-21T07:33:04;11.20;99.90
37242;DHT22;23135;51.078;12.108;2022-09-21T07:35:30;11.30;99.90
37242;DHT22;23135;51.078;12.108;2022-09-21T07:37:57;11.50;99.90
37242;DHT22;23135;51.078;12.108;2022-09-21T07:40:23;11.60;99.90
37242;DHT22;23135;51.078;12.108;2022-09-21T07:42:48;11.70;99.90
37242;DHT22;23135;51.078;12.108;2022-09-21T07:45:14;11.90;99.90
37242;DHT22;23135;51.078;12.108;2022-09-21T07:47:40;11.90;99.90
37242;DHT22;23135;51.078;12.108;2022-09-21T07:50:05;12.00;99.90
37242;DHT22;23135;51.078;12.108;2022-09-21T07:52:31;12.10;99.90
37242;DHT22;23135;51.078;12.108;2022-09-21T07:54:57;12.20;99.90
37242;DHT22;23135;51.078;12.108;2022-09-21T07:57:22;12.60;99.90
37242;DHT22;23135;51.078;12.108;2022-09-21T08:00:07;12.90;99.90
37242;DHT22;23135;51.078;12.108;2022-09-21T08:02:33;12.80;99.90
37242;DHT22;23135;51.078;12.108;2022-09-21T08:04:59;13.00;99.90
37242;DHT22;23135;51.078;12.108;2022-09-21T08:07:24;13.10;99.90
37242;DHT22;23135;51.078;12.108;2022-09-21T08:09:52;13.10;99.90
37242;DHT22;23135;51.078;12.108;2022-09-21T08:12:17;13.20;99.90
37242;DHT22;23135;51.078;12.108;2022-09-21T08:14:45;13.30;99.90
37242;DHT22;23135;51.078;12.108;2022-09-21T08:17:12;13.50;99.90
37242;DHT22;23135;51.078;12.108;2022-09-21T08:19:37;13.60;99.90
37242;DHT22;23135;51.078;12.108;2022-09-21T08:22:03;13.50;99.90
37242;DHT22;23135;51.078;12.108;2022-09-21T08:24:29;13.70;99.90
37242;DHT22;23135;51.078;12.108;2022-09-21T08:26:55;13.80;99.90
37242;DHT22;23135;51.078;12.108;2022-09-21T08:29:23;13.80;99.90
37242;DHT22;23135;51.078;12.108;2022-09-21T08:31:49;13.80;99.90
37242;DHT22;23135;51.078;12.108;2022-09-21T08:34:14;13.90;99.90
37242;DHT22;23135;51.078;12.108;2022-09-21T08:36:40;14.00;99.90
37242;DHT22;23135;51.078;12.108;2022-09-21T08:39:07;14.30;99.90
37242;DHT22;23135;51.078;12.108;2022-09-21T08:44:26;14.40;99.90
37242;DHT22;23135;51.078;12.108;2022-09-21T08:47:05;14.40;99.90
37242;DHT22;23135;51.078;12.108;2022-09-21T08:49:35;14.30;99.90
37242;DHT22;23135;51.078;12.108;2022-09-21T08:52:06;14.20;99.90
37242;DHT22;23135;51.078;12.108;2022-09-21T08:54:56;14.20;99.90
37242;DHT22;23135;51.078;12.108;2022-09-21T08:57:28;14.30;99.90
37242;DHT22;23135;51.078;12.108;2022-09-21T08:59:54;14.40;99.90
37242;DHT22;23135;51.078;12.108;2022-09-21T09:05:48;14.20;99.90
37242;DHT22;23135;51.078;12.108;2022-09-21T09:08:58;14.20;99.90
37242;DHT22;23135;51.078;12.108;2022-09-21T09:11:45;14.30;99.90
37242;DHT22;23135;51.078;12.108;2022-09-21T09:14:39;14.40;99.90
37242;DHT22;23135;51.078;12.108;2022-09-21T09:17:41;14.60;99.90
37242;DHT22;23135;51.078;12.108;2022-09-21T09:20:17;14.60;99.90
37242;DHT22;23135;51.078;12.108;2022-09-21T09:23:04;14.60;99.90
37242;DHT22;23135;51.078;12.108;2022-09-21T09:25:37;14.80;99.90
37242;DHT22;23135;51.078;12.108;2022-09-21T09:30:41;15.00;99.90
37242;DHT22;23135;51.078;12.108;2022-09-21T09:33:20;14.90;99.90
37242;DHT22;23135;51.078;12.108;2022-09-21T09:36:06;14.90;99.90
37242;DHT22;23135;51.078;12.108;2022-09-21T09:50:10;15.20;99.90
37242;DHT22;23135;51.078;12.108;2022-09-21T09:52:38;15.30;99.90
37242;DHT22;23135;51.078;12.108;2022-09-21T09:55:17;15.40;99.90
37242;DHT22;23135;51.078;12.108;2022-09-21T09:57:45;15.30;99.90
37242;DHT22;23135;51.078;12.108;2022-09-21T10:00:17;15.40;99.90
37242;DHT22;23135;51.078;12.108;2022-09-21T10:02:54;15.50;99.90
37242;DHT22;23135;51.078;12.108;2022-09-21T10:05:30;15.80;99.90
37242;DHT22;23135;51.078;12.108;2022-09-21T10:07:56;15.70;99.90
37242;DHT22;23135;51.078;12.108;2022-09-21T10:15:54;15.80;99.90
37242;DHT22;23135;51.078;12.108;2022-09-21T10:18:23;15.90;99.90
37242;DHT22;23135;51.078;12.108;2022-09-21T10:20:59;16.00;99.90
37242;DHT22;23135;51.078;12.108;2022-09-21T10:23:26;16.20;99.90
37242;DHT22;23135;51.078;12.108;2022-09-21T10:25:57;16.20;99.90
37242;DHT22;23135;51.078;12.108;2022-09-21T10:28:24;16.10;99.90
37242;DHT22;23135;51.078;12.108;2022-09-21T10:31:10;16.10;99.90
37242;DHT22;23135;51.078;12.108;2022-09-21T10:33:53;16.40;99.90
37242;DHT22;23135;51.078;12.108;2022-09-21T10:36:26;16.30;99.90
37242;DHT22;23135;51.078;12.108;2022-09-21T10:38:52;15.80;99.90
37242;DHT22;23135;51.078;12.108;2022-09-21T10:41:18;15.60;99.90
37242;DHT22;23135;51.078;12.108;2022-09-21T10:43:43;15.30;99.90
37242;DHT22;23135;51.078;12.108;2022-09-21T10:46:10;14.90;99.90
37242;DHT22;23135;51.078;12.108;2022-09-21T10:48:36;14.80;99.90
37242;DHT22;23135;51.078;12.108;2022-09-21T10:51:02;14.70;99.90
37242;DHT22;23135;51.078;12.108;2022-09-21T10:53:32;14.70;99.90
37242;DHT22;23135;51.078;12.108;2022-09-21T10:56:13;14.70;99.90
37242;DHT22;23135;51.078;12.108;2022-09-21T11:01:59;14.80;99.90
37242;DHT22;23135;51.078;12.108;2022-09-21T11:04:35;14.90;99.90
37242;DHT22;23135;51.078;12.108;2022-09-21T11:10:20;16.20;99.90
37242;DHT22;23135;51.078;12.108;2022-09-21T11:18:25;17.50;99.90
37242;DHT22;23135;51.078;12.108;2022-09-21T11:23:46;17.80;99.50
37242;DHT22;23135;51.078;12.108;2022-09-21T11:26:20;17.80;99.30
37242;DHT22;23135;51.078;12.108;2022-09-21T11:34:25;17.50;99.90
37242;DHT22;23135;51.078;12.108;2022-09-21T11:37:13;17.90;99.90
37242;DHT22;23135;51.078;12.108;2022-09-21T11:39:53;18.20;98.20
37242;DHT22;23135;51.078;12.108;2022-09-21T11:45:40;17.80;97.60
37242;DHT22;23135;51.078;12.108;2022-09-21T12:04:54;18.80;94.50
37242;DHT22;23135;51.078;12.108;2022-09-21T12:07:29;18.30;96.00
37242;DHT22;23135;51.078;12.108;2022-09-21T12:10:15;18.00;98.00
37242;DHT22;23135;51.078;12.108;2022-09-21T12:12:51;17.60;99.40
37242;DHT22;23135;51.078;12.108;2022-09-21T12:15:27;17.20;99.90
37242;DHT22;23135;51.078;12.108;2022-09-21T12:20:41;16.60;99.90
37242;DHT22;23135;51.078;12.108;2022-09-21T12:25:56;16.20;99.90
37242;DHT22;23135;51.078;12.108;2022-09-21T12:28:43;16.00;98.90
37242;DHT22;23135;51.078;12.108;2022-09-21T12:31:24;15.90;99.00
37242;DHT22;23135;51.078;12.108;2022-09-21T12:33:54;15.70;99.10
37242;DHT22;23135;51.078;12.108;2022-09-21T12:36:26;16.00;99.90
37242;DHT22;23135;51.078;12.108;2022-09-21T12:39:06;16.50;99.20
37242;DHT22;23135;51.078;12.108;2022-09-21T12:44:29;17.40;99.50
37242;DHT22;23135;51.078;12.108;2022-09-21T12:47:05;17.20;97.00
37242;DHT22;23135;51.078;12.108;2022-09-21T12:49:45;17.30;98.00
37242;DHT22;23135;51.078;12.108;2022-09-21T12:52:19;17.70;96.50
37242;DHT22;23135;51.078;12.108;2022-09-21T12:55:00;18.70;96.90
37242;DHT22;23135;51.078;12.108;2022-09-21T12:57:47;18.70;93.20
37242;DHT22;23135;51.078;12.108;2022-09-21T13:00:23;19.10;93.70
37242;DHT22;23135;51.078;12.108;2022-09-21T13:02:57;19.50;93.20
37242;DHT22;23135;51.078;12.108;2022-09-21T13:05:43;19.60;92.70
37242;DHT22;23135;51.078;12.108;2022-09-21T13:08:23;19.80;92.50
37242;DHT22;23135;51.078;12.108;2022-09-21T13:13:44;19.90;92.30
37242;DHT22;23135;51.078;12.108;2022-09-21T13:16:33;20.20;91.00
37242;DHT22;23135;51.078;12.108;2022-09-21T13:19:15;20.10;91.10
37242;DHT22;23135;51.078;12.108;2022-09-21T13:21:42;20.50;90.10
37242;DHT22;23135;51.078;12.108;2022-09-21T13:24:27;20.20;92.10
37242;DHT22;23135;51.078;12.108;2022-09-21T13:26:57;19.30;93.20
37242;DHT22;23135;51.078;12.108;2022-09-21T13:29:36;18.70;94.30
37242;DHT22;23135;51.078;12.108;2022-09-21T13:34:40;17.90;95.50
37242;DHT22;23135;51.078;12.108;2022-09-21T13:39:42;17.20;97.30
37242;DHT22;23135;51.078;12.108;2022-09-21T13:44:57;16.70;98.50
37242;DHT22;23135;51.078;12.108;2022-09-21T13:47:55;16.30;99.10
37242;DHT22;23135;51.078;12.108;2022-09-21T13:50:41;16.00;99.80
37242;DHT22;23135;51.078;12.108;2022-09-21T13:53:20;15.80;99.90
37242;DHT22;23135;51.078;12.108;2022-09-21T13:55:52;15.70;99.90
37242;DHT22;23135;51.078;12.108;2022-09-21T13:58:20;15.60;99.90
37242;DHT22;23135;51.078;12.108;2022-09-21T14:01:04;15.60;99.90
37242;DHT22;23135;51.078;12.108;2022-09-21T14:03:35;15.50;99.90
37242;DHT22;23135;51.078;12.108;2022-09-21T14:06:06;15.50;99.90
37242;DHT22;23135;51.078;12.108;2022-09-21T14:08:36;15.40;99.90
37242;DHT22;23135;51.078;12.108;2022-09-21T14:11:51;15.30;99.90
37242;DHT22;23135;51.078;12.108;2022-09-21T14:24:36;15.00;99.90
37242;DHT22;23135;51.078;12.108;2022-09-21T14:30:13;14.90;99.90
37242;DHT22;23135;51.078;12.108;2022-09-21T14:35:20;14.70;99.90
37242;DHT22;23135;51.078;12.108;2022-09-21T14:37:53;14.70;99.90
37242;DHT22;23135;51.078;12.108;2022-09-21T14:40:37;14.60;99.90
37242;DHT22;23135;51.078;12.108;2022-09-21T14:43:09;14.60;99.90
37242;DHT22;23135;51.078;12.108;2022-09-21T15:00:18;14.80;99.90
37242;DHT22;23135;51.078;12.108;2022-09-21T15:06:30;14.90;99.90
37242;DHT22;23135;51.078;12.108;2022-09-21T15:09:26;15.20;99.90
37242;DHT22;23135;51.078;12.108;2022-09-21T15:12:20;15.50;99.90
37242;DHT22;23135;51.078;12.108;2022-09-21T15:17:50;15.50;99.90
37242;DHT22;23135;51.078;12.108;2022-09-21T15:20:21;15.40;99.90
37242;DHT22;23135;51.078;12.108;2022-09-21T15:22:56;15.40;99.90
37242;DHT22;23135;51.078;12.108;2022-09-21T15:25:24;15.30;99.90
37242;DHT22;23135;51.078;12.108;2022-09-21T15:27:51;15.20;99.90
37242;DHT22;23135;51.078;12.108;2022-09-21T15:30:23;15.00;99.90
37242;DHT22;23135;51.078;12.108;2022-09-21T15:32:53;15.00;99.90
37242;DHT22;23135;51.078;12.108;2022-09-21T15:35:22;15.10;99.90
37242;DHT22;23135;51.078;12.108;2022-09-21T15:37:49;15.20;99.90
37242;DHT22;23135;51.078;12.108;2022-09-21T15:40:21;15.30;99.90
37242;DHT22;23135;51.078;12.108;2022-09-21T15:45:59;15.40;99.90
37242;DHT22;23135;51.078;12.108;2022-09-21T15:48:27;15.40;99.90
37242;DHT22;23135;51.078;12.108;2022-09-21T15:51:02;15.40;99.90
37242;DHT22;23135;51.078;12.108;2022-09-21T15:53:32;15.30;99.90
37242;DHT22;23135;51.078;12.108;2022-09-21T15:56:00;15.20;99.90
37242;DHT22;23135;51.078;12.108;2022-09-21T16:00:54;14.90;99.90
37242;DHT22;23135;51.078;12.108;2022-09-21T16:03:22;14.90;99.90
37242;DHT22;23135;51.078;12.108;2022-09-21T16:05:51;14.90;99.90
37242;DHT22;23135;51.078;12.108;2022-09-21T16:08:33;14.90;99.90
37242;DHT22;23135;51.078;12.108;2022-09-21T16:11:31;14.90;99.90
37242;DHT22;23135;51.078;12.108;2022-09-21T16:14:17;14.90;99.90
37242;DHT22;23135;51.078;12.108;2022-09-21T16:22:18;14.80;99.90
37242;DHT22;23135;51.078;12.108;2022-09-21T16:24:49;14.80;99.90
37242;DHT22;23135;51.078;12.108;2022-09-21T16:27:18;14.70;99.90
37242;DHT22;23135;51.078;12.108;2022-09-21T16:29:46;14.60;99.90
37242;DHT22;23135;51.078;12.108;2022-09-21T16:34:49;14.50;99.90
37242;DHT22;23135;51.078;12.108;2022-09-21T16:37:27;14.40;99.90
37242;DHT22;23135;51.078;12.108;2022-09-21T16:39:54;14.30;99.90
37242;DHT22;23135;51.078;12.108;2022-09-21T16:42:21;14.20;99.90
37242;DHT22;23135;51.078;12.108;2022-09-21T16:44:48;14.00;99.90
37242;DHT22;23135;51.078;12.108;2022-09-21T16:47:19;13.90;99.90
37242;DHT22;23135;51.078;12.108;2022-09-21T16:49:54;13.80;99.90
37242;DHT22;23135;51.078;12.108;2022-09-21T16:52:22;13.70;99.90
37242;DHT22;23135;51.078;12.108;2022-09-21T16:54:48;13.50;99.90
37242;DHT22;23135;51.078;12.108;2022-09-21T16:57:14;13.40;99.90
37242;DHT22;23135;51.078;12.108;2022-09-21T16:59:40;13.30;99.90
37242;DHT22;23135;51.078;12.108;2022-09-21T17:02:08;13.20;99.90
37242;DHT22;23135;51.078;12.108;2022-09-21T17:04:34;13.10;99.90
37242;DHT22;23135;51.078;12.108;2022-09-21T17:07:00;12.90;99.90
37242;DHT22;23135;51.078;12.108;2022-09-21T17:09:38;12.70;99.90
37242;DHT22;23135;51.078;12.108;2022-09-21T17:12:07;12.50;99.90
37242;DHT22;23135;51.078;12.108;2022-09-21T17:14:35;12.30;99.90
37242;DHT22;23135;51.078;12.108;2022-09-21T17:17:18;12.20;99.90
37242;DHT22;23135;51.078;12.108;2022-09-21T17:19:45;12.10;99.90
37242;DHT22;23135;51.078;12.108;2022-09-21T17:22:11;12.00;99.90
37242;DHT22;23135;51.078;12.108;2022-09-21T17:24:42;11.80;99.90
37242;DHT22;23135;51.078;12.108;2022-09-21T17:27:10;11.70;99.90
37242;DHT22;23135;51.078;12.108;2022-09-21T17:29:37;11.60;99.90
37242;DHT22;23135;51.078;12.108;2022-09-21T17:32:07;11.50;99.90
37242;DHT22;23135;51.078;12.108;2022-09-21T17:34:34;11.50;99.90
37242;DHT22;23135;51.078;12.108;2022-09-21T17:37:00;11.40;99.90
37242;DHT22;23135;51.078;12.108;2022-09-21T17:39:26;11.30;99.90
37242;DHT22;23135;51.078;12.108;2022-09-21T17:42:00;11.30;99.90
37242;DHT22;23135;51.078;12.108;2022-09-21T17:47:08;11.20;99.90
37242;DHT22;23135;51.078;12.108;2022-09-21T17:49:36;11.10;99.90
37242;DHT22;23135;51.078;12.108;2022-09-21T17:52:02;11.10;99.90
37242;DHT22;23135;51.078;12.108;2022-09-21T17:54:46;11.00;99.90
37242;DHT22;23135;51.078;12.108;2022-09-21T17:59:59;10.60;99.90
37242;DHT22;23135;51.078;12.108;2022-09-21T18:02:25;10.50;99.90
37242;DHT22;23135;51.078;12.108;2022-09-21T18:04:58;10.50;99.90
37242;DHT22;23135;51.078;12.108;2022-09-21T18:07:25;10.40;99.90
37242;DHT22;23135;51.078;12.108;2022-09-21T18:09:52;10.30;99.90
37242;DHT22;23135;51.078;12.108;2022-09-21T18:12:40;10.30;99.90
37242;DHT22;23135;51.078;12.108;2022-09-21T18:15:26;10.30;99.90
37242;DHT22;23135;51.078;12.108;2022-09-21T18:20:51;10.20;99.90
37242;DHT22;23135;51.078;12.108;2022-09-21T18:23:32;10.20;99.90
37242;DHT22;23135;51.078;12.108;2022-09-21T18:26:01;10.20;99.90
37242;DHT22;23135;51.078;12.108;2022-09-21T18:28:40;10.20;99.90
37242;DHT22;23135;51.078;12.108;2022-09-21T18:37:36;10.00;99.90
37242;DHT22;23135;51.078;12.108;2022-09-21T18:42:58;9.70;99.90
37242;DHT22;23135;51.078;12.108;2022-09-21T18:45:39;9.60;99.90
37242;DHT22;23135;51.078;12.108;2022-09-21T18:48:17;9.50;99.90
37242;DHT22;23135;51.078;12.108;2022-09-21T18:53:34;9.30;99.90
37242;DHT22;23135;51.078;12.108;2022-09-21T18:56:01;9.20;99.90
37242;DHT22;23135;51.078;12.108;2022-09-21T18:58:27;9.20;99.90